Time;durP1;ratioP1;P1;durP2;ratioP2;P2;SDS_P1;SDS_P2;PMS_P1;PMS_P2;Temp;Humidity;BMP_temperature;BMP_pressure;BME280_temperature;BME280_humidity;BME280_pressure;Samples;Min_cycle;Max_cycle;Signal;HPM_P1;HPM_P2
2022/02/21 00:00:53;;;;;;;;;;;6.40;99.90;;;;;;5022055;28;19925;-75
2022/02/21 00:03:21;;;;;;;;;;;6.30;99.90;;;;;;5016205;28;19932;-74
2022/02/21 00:05:48;;;;;;;;;;;6.30;99.90;;;;;;5017114;28;19960;-74
2022/02/21 00:08:16;;;;;;;;;;;6.20;99.90;;;;;;5014203;28;19925;-76
2022/02/21 00:10:43;;;;;;;;;;;6.20;99.90;;;;;;5011686;28;19925;-74
2022/02/21 00:13:11;;;;;;;;;;;6.20;99.90;;;;;;5011349;28;19969;-74
2022/02/21 00:15:37;;;;;;;;;;;6.10;99.90;;;;;;5011676;28;19930;-73
2022/02/21 00:18:04;;;;;;;;;;;6.10;99.90;;;;;;5011426;28;19925;-74
2022/02/21 00:20:31;;;;;;;;;;;6.10;99.90;;;;;;5020476;28;20371;-75
2022/02/21 00:22:57;;;;;;;;;;;6.00;99.90;;;;;;5016978;28;20414;-77
2022/02/21 00:25:25;;;;;;;;;;;6.00;99.90;;;;;;5011204;28;19936;-75
2022/02/21 00:27:53;;;;;;;;;;;6.10;99.90;;;;;;5014173;28;20380;-74
2022/02/21 00:30:19;;;;;;;;;;;6.10;99.90;;;;;;5016505;28;19936;-74
2022/02/21 00:32:46;;;;;;;;;;;6.20;99.90;;;;;;5009744;28;19959;-74
2022/02/21 00:35:13;;;;;;;;;;;6.20;99.90;;;;;;5016425;28;20400;-77
2022/02/21 00:37:39;;;;;;;;;;;6.20;99.90;;;;;;5010975;28;19925;-77
2022/02/21 00:40:06;;;;;;;;;;;6.00;99.90;;;;;;5019984;28;19925;-77
2022/02/21 00:42:34;;;;;;;;;;;5.90;99.90;;;;;;5022254;28;19926;-77
2022/02/21 00:45:06;;;;;;;;;;;5.70;99.90;;;;;;5013859;28;19981;-77
2022/02/21 00:47:32;;;;;;;;;;;5.70;99.90;;;;;;5018278;28;19993;-77
2022/02/21 00:49:59;;;;;;;;;;;5.50;99.90;;;;;;5014015;28;19926;-77
2022/02/21 00:52:26;;;;;;;;;;;5.50;99.90;;;;;;5009533;28;20016;-77
2022/02/21 00:54:53;;;;;;;;;;;5.50;99.90;;;;;;5019774;28;20037;-77
2022/02/21 00:57:19;;;;;;;;;;;5.70;99.90;;;;;;5009071;28;20024;-77
2022/02/21 00:59:48;;;;;;;;;;;5.60;99.90;;;;;;5014223;28;20392;-76
2022/02/21 01:02:15;;;;;;;;;;;5.70;99.90;;;;;;5014381;28;19932;-77
2022/02/21 01:04:42;;;;;;;;;;;5.80;99.90;;;;;;5010906;28;19926;-77
2022/02/21 01:07:08;;;;;;;;;;;6.40;99.90;;;;;;5012597;28;19932;-78
2022/02/21 01:09:35;;;;;;;;;;;5.80;99.90;;;;;;5010687;28;20021;-78
2022/02/21 01:12:02;;;;;;;;;;;5.80;99.90;;;;;;5010937;28;20012;-77
2022/02/21 01:14:28;;;;;;;;;;;5.90;99.90;;;;;;5010062;28;19932;-78
2022/02/21 01:16:56;;;;;;;;;;;6.00;99.90;;;;;;5014984;28;19948;-77
2022/02/21 01:19:23;;;;;;;;;;;6.10;99.90;;;;;;5014100;28;19925;-77
2022/02/21 01:21:50;;;;;;;;;;;6.20;99.90;;;;;;5018151;28;19932;-77
2022/02/21 01:24:16;;;;;;;;;;;6.10;99.90;;;;;;5025233;28;19932;-77
2022/02/21 01:26:43;;;;;;;;;;;6.10;99.90;;;;;;5010022;28;20558;-76
2022/02/21 01:29:10;;;;;;;;;;;6.10;99.90;;;;;;5011760;28;19944;-75
2022/02/21 01:31:37;;;;;;;;;;;6.10;99.90;;;;;;5014260;28;20400;-75
2022/02/21 01:34:05;;;;;;;;;;;6.30;99.90;;;;;;5010366;28;19929;-74
2022/02/21 01:36:32;;;;;;;;;;;6.20;99.90;;;;;;5013318;28;20380;-74
2022/02/21 01:38:58;;;;;;;;;;;6.30;99.90;;;;;;5012096;28;19949;-76
2022/02/21 01:41:25;;;;;;;;;;;6.20;99.40;;;;;;5013862;28;19930;-75
2022/02/21 01:44:01;;;;;;;;;;;6.30;99.20;;;;;;5008733;28;20234;-75
2022/02/21 01:46:28;;;;;;;;;;;6.30;99.10;;;;;;5009839;28;19933;-75
2022/02/21 01:48:54;;;;;;;;;;;6.20;99.00;;;;;;5012894;28;20020;-75
2022/02/21 01:51:23;;;;;;;;;;;6.30;98.90;;;;;;5015084;28;20012;-75
2022/02/21 01:53:49;;;;;;;;;;;6.20;97.60;;;;;;5018523;28;19926;-75
2022/02/21 01:56:16;;;;;;;;;;;6.20;96.90;;;;;;5011212;28;19969;-75
2022/02/21 01:58:43;;;;;;;;;;;6.20;97.40;;;;;;5012150;28;20315;-75
2022/02/21 02:01:09;;;;;;;;;;;6.10;96.60;;;;;;5010896;28;19939;-75
2022/02/21 02:03:36;;;;;;;;;;;6.00;96.30;;;;;;5010341;28;20028;-75
2022/02/21 02:06:03;;;;;;;;;;;6.00;96.50;;;;;;5017075;28;19925;-75
2022/02/21 02:08:31;;;;;;;;;;;6.00;95.70;;;;;;5014489;28;20384;-76
2022/02/21 02:10:58;;;;;;;;;;;6.10;95.10;;;;;;5016189;28;19925;-75
2022/02/21 02:13:25;;;;;;;;;;;6.00;94.60;;;;;;5015972;28;19929;-75
2022/02/21 02:15:52;;;;;;;;;;;6.10;94.60;;;;;;5019374;28;19925;-75
2022/02/21 02:18:18;;;;;;;;;;;6.00;93.90;;;;;;5009039;28;19994;-75
2022/02/21 02:20:45;;;;;;;;;;;6.00;93.00;;;;;;5016518;28;20406;-75
2022/02/21 02:23:13;;;;;;;;;;;5.90;93.10;;;;;;5015027;28;20360;-75
2022/02/21 02:25:40;;;;;;;;;;;5.80;93.30;;;;;;5012423;28;19926;-75
2022/02/21 02:28:06;;;;;;;;;;;5.80;92.10;;;;;;5011126;28;20340;-75
2022/02/21 02:30:33;;;;;;;;;;;5.70;91.80;;;;;;5013340;28;19926;-75
2022/02/21 02:33:00;;;;;;;;;;;5.70;90.70;;;;;;5009441;28;19964;-74
2022/02/21 02:35:28;;;;;;;;;;;5.80;91.00;;;;;;5016559;28;19929;-75
2022/02/21 02:37:54;;;;;;;;;;;5.70;86.60;;;;;;5018119;28;19929;-75
2022/02/21 02:40:22;;;;;;;;;;;5.80;86.30;;;;;;5017405;28;19925;-75
2022/02/21 02:42:49;;;;;;;;;;;5.80;86.10;;;;;;5009325;28;19925;-75
2022/02/21 02:45:15;;;;;;;;;;;5.80;86.60;;;;;;5014915;28;19932;-75
2022/02/21 02:47:42;;;;;;;;;;;5.80;87.20;;;;;;5009129;28;19925;-75
2022/02/21 02:50:09;;;;;;;;;;;5.70;87.60;;;;;;5014168;28;19943;-75
2022/02/21 02:52:36;;;;;;;;;;;5.70;89.60;;;;;;5011818;28;20053;-75
2022/02/21 02:55:03;;;;;;;;;;;5.80;90.20;;;;;;5012379;28;20016;-75
2022/02/21 02:57:30;;;;;;;;;;;5.80;90.80;;;;;;5009267;28;19945;-75
2022/02/21 02:59:58;;;;;;;;;;;5.70;90.90;;;;;;5013329;28;19932;-75
2022/02/21 03:02:24;;;;;;;;;;;5.70;90.90;;;;;;5009167;28;19990;-75
2022/02/21 03:04:52;;;;;;;;;;;5.60;90.80;;;;;;5012530;28;19972;-76
2022/02/21 03:07:18;;;;;;;;;;;5.50;90.70;;;;;;5018576;28;20380;-76
2022/02/21 03:09:45;;;;;;;;;;;5.50;90.80;;;;;;5014571;28;20384;-76
2022/02/21 03:12:11;;;;;;;;;;;5.50;90.20;;;;;;5008039;28;19925;-76
2022/02/21 03:14:39;;;;;;;;;;;5.50;89.30;;;;;;5014072;28;19926;-76
2022/02/21 03:17:06;;;;;;;;;;;5.40;89.40;;;;;;5010727;28;19926;-76
2022/02/21 03:19:33;;;;;;;;;;;5.40;90.10;;;;;;5013055;28;19930;-76
2022/02/21 03:22:01;;;;;;;;;;;5.30;89.50;;;;;;5021121;28;19926;-75
2022/02/21 03:24:27;;;;;;;;;;;5.20;90.10;;;;;;5019312;28;20479;-76
2022/02/21 03:26:54;;;;;;;;;;;5.30;90.40;;;;;;5021434;28;19925;-77
2022/02/21 03:29:21;;;;;;;;;;;5.20;90.00;;;;;;5023174;28;19926;-77
2022/02/21 03:31:49;;;;;;;;;;;5.20;90.10;;;;;;5014144;28;19933;-75
2022/02/21 03:34:15;;;;;;;;;;;5.30;89.50;;;;;;5014108;28;19925;-76
2022/02/21 03:36:42;;;;;;;;;;;5.40;89.50;;;;;;5024290;28;19925;-76
2022/02/21 03:39:08;;;;;;;;;;;5.50;88.90;;;;;;5014558;28;19926;-76
2022/02/21 03:41:35;;;;;;;;;;;5.50;88.40;;;;;;5016791;27;19932;-76
2022/02/21 03:44:02;;;;;;;;;;;5.60;87.30;;;;;;5020316;28;19971;-77
2022/02/21 03:46:29;;;;;;;;;;;5.60;88.00;;;;;;5021140;28;19929;-77
2022/02/21 03:48:57;;;;;;;;;;;5.60;88.30;;;;;;5016376;28;19933;-77
2022/02/21 03:51:24;;;;;;;;;;;5.60;88.70;;;;;;5023968;28;19947;-77
2022/02/21 03:53:51;;;;;;;;;;;5.60;88.80;;;;;;5015039;28;19925;-77
2022/02/21 03:56:17;;;;;;;;;;;5.60;89.30;;;;;;5016612;28;19983;-75
2022/02/21 03:58:45;;;;;;;;;;;5.60;89.40;;;;;;5016337;28;20410;-76
2022/02/21 04:01:12;;;;;;;;;;;5.60;89.50;;;;;;5019367;28;19934;-76
2022/02/21 04:03:38;;;;;;;;;;;5.60;89.40;;;;;;5016827;28;19930;-77
2022/02/21 04:06:06;;;;;;;;;;;5.60;89.40;;;;;;5015130;28;19932;-76
2022/02/21 04:08:33;;;;;;;;;;;5.60;89.10;;;;;;5021177;28;20303;-74
2022/02/21 04:11:00;;;;;;;;;;;5.60;89.50;;;;;;5017684;28;19961;-75
2022/02/21 04:13:27;;;;;;;;;;;5.60;89.50;;;;;;5026134;28;19925;-75
2022/02/21 04:15:53;;;;;;;;;;;5.60;89.40;;;;;;5017675;28;20284;-75
2022/02/21 04:18:20;;;;;;;;;;;5.60;88.70;;;;;;5011380;28;19939;-75
2022/02/21 04:20:47;;;;;;;;;;;5.70;88.90;;;;;;5016050;28;19948;-75
2022/02/21 04:23:15;;;;;;;;;;;5.60;88.70;;;;;;5013540;28;19960;-75
2022/02/21 04:25:41;;;;;;;;;;;5.60;88.90;;;;;;5012620;28;19925;-74
2022/02/21 04:28:08;;;;;;;;;;;5.60;88.60;;;;;;5015824;28;20192;-75
2022/02/21 04:30:35;;;;;;;;;;;5.60;89.50;;;;;;5021830;28;19929;-75
2022/02/21 04:33:01;;;;;;;;;;;5.60;89.80;;;;;;5018322;28;19938;-75
2022/02/21 04:35:28;;;;;;;;;;;5.60;90.10;;;;;;5017420;28;20252;-75
2022/02/21 04:37:55;;;;;;;;;;;5.50;90.00;;;;;;5013824;28;20400;-75
2022/02/21 04:40:24;;;;;;;;;;;5.50;90.20;;;;;;5020076;28;19937;-75
2022/02/21 04:42:54;;;;;;;;;;;5.50;90.50;;;;;;5011868;28;20225;-75
2022/02/21 04:45:21;;;;;;;;;;;5.50;90.20;;;;;;5017470;28;19965;-74
2022/02/21 04:47:48;;;;;;;;;;;5.50;90.70;;;;;;5013088;28;19926;-74
2022/02/21 04:50:15;;;;;;;;;;;5.40;90.80;;;;;;5013693;28;20016;-74
2022/02/21 04:52:42;;;;;;;;;;;5.40;90.90;;;;;;5011453;28;20367;-75
2022/02/21 04:55:10;;;;;;;;;;;5.30;91.00;;;;;;5015258;28;19973;-74
2022/02/21 04:57:38;;;;;;;;;;;5.40;91.00;;;;;;5014207;28;20381;-75
2022/02/21 05:00:06;;;;;;;;;;;5.30;90.80;;;;;;5010591;28;19940;-75
2022/02/21 05:02:32;;;;;;;;;;;5.30;90.90;;;;;;5013306;28;19934;-75
2022/02/21 05:04:59;;;;;;;;;;;5.30;90.70;;;;;;5012466;28;19926;-74
2022/02/21 05:07:26;;;;;;;;;;;5.40;90.50;;;;;;5011435;28;19926;-75
2022/02/21 05:09:52;;;;;;;;;;;5.30;90.80;;;;;;5012371;28;19925;-75
2022/02/21 05:12:19;;;;;;;;;;;5.30;90.90;;;;;;5014151;28;19929;-75
2022/02/21 05:14:47;;;;;;;;;;;5.40;90.70;;;;;;5011927;28;19955;-75
2022/02/21 05:17:13;;;;;;;;;;;5.20;91.00;;;;;;5016912;28;19933;-75
2022/02/21 05:19:40;;;;;;;;;;;5.10;90.90;;;;;;5017936;28;20020;-75
2022/02/21 05:22:07;;;;;;;;;;;5.10;91.20;;;;;;5015365;28;19925;-74
2022/02/21 05:24:33;;;;;;;;;;;5.00;91.30;;;;;;5016299;28;19936;-74
2022/02/21 05:27:00;;;;;;;;;;;5.10;91.50;;;;;;5011991;28;20420;-74
2022/02/21 05:29:27;;;;;;;;;;;5.00;92.00;;;;;;5014154;28;20449;-74
2022/02/21 05:31:55;;;;;;;;;;;5.00;92.10;;;;;;5015239;28;20355;-75
2022/02/21 05:34:23;;;;;;;;;;;4.90;92.40;;;;;;5010365;28;19944;-74
2022/02/21 05:36:50;;;;;;;;;;;4.80;92.60;;;;;;5009350;28;20309;-75
2022/02/21 05:39:17;;;;;;;;;;;4.80;92.70;;;;;;5008382;28;19925;-75
2022/02/21 05:41:44;;;;;;;;;;;4.80;93.10;;;;;;5020259;28;19932;-75
2022/02/21 05:44:11;;;;;;;;;;;4.80;93.40;;;;;;5017209;28;19932;-75
2022/02/21 05:46:38;;;;;;;;;;;4.70;93.60;;;;;;5012347;28;20449;-75
2022/02/21 05:49:06;;;;;;;;;;;4.70;93.70;;;;;;5013782;28;19940;-75
2022/02/21 05:51:33;;;;;;;;;;;4.70;93.70;;;;;;5017775;28;20053;-75
2022/02/21 05:53:59;;;;;;;;;;;4.70;93.90;;;;;;5015558;28;19926;-75
2022/02/21 05:56:26;;;;;;;;;;;4.60;94.00;;;;;;5011992;28;20516;-74
2022/02/21 05:58:53;;;;;;;;;;;4.70;94.10;;;;;;5012928;28;20008;-75
2022/02/21 06:01:19;;;;;;;;;;;4.60;94.20;;;;;;5019926;28;19925;-74
2022/02/21 06:03:46;;;;;;;;;;;4.50;94.60;;;;;;5016847;28;19929;-75
2022/02/21 06:06:14;;;;;;;;;;;4.50;94.60;;;;;;5019377;28;19925;-76
2022/02/21 06:08:41;;;;;;;;;;;4.50;94.60;;;;;;5015008;28;19931;-76
2022/02/21 06:11:07;;;;;;;;;;;4.50;94.60;;;;;;5014868;28;19932;-76
2022/02/21 06:13:34;;;;;;;;;;;4.40;94.80;;;;;;5013390;28;19931;-76
2022/02/21 06:16:01;;;;;;;;;;;4.40;95.00;;;;;;5013234;28;20035;-76
2022/02/21 06:18:28;;;;;;;;;;;4.40;95.20;;;;;;5014503;28;19933;-76
2022/02/21 06:20:55;;;;;;;;;;;4.40;95.00;;;;;;5015256;28;20009;-76
2022/02/21 06:23:23;;;;;;;;;;;4.40;95.00;;;;;;5019744;28;19972;-76
2022/02/21 06:25:49;;;;;;;;;;;4.40;94.90;;;;;;5014415;28;19944;-75
2022/02/21 06:28:16;;;;;;;;;;;4.40;94.60;;;;;;5010392;28;19993;-77
2022/02/21 06:30:43;;;;;;;;;;;4.40;94.70;;;;;;5006514;28;19932;-76
2022/02/21 06:33:10;;;;;;;;;;;4.30;94.70;;;;;;5013648;28;19941;-76
2022/02/21 06:35:36;;;;;;;;;;;4.40;94.70;;;;;;5014604;28;19925;-76
2022/02/21 06:38:04;;;;;;;;;;;4.30;94.80;;;;;;5009992;28;19931;-76
2022/02/21 06:40:33;;;;;;;;;;;4.30;95.00;;;;;;5008189;28;19929;-78
2022/02/21 06:43:00;;;;;;;;;;;4.30;95.20;;;;;;5006759;28;19957;-76
2022/02/21 06:45:28;;;;;;;;;;;4.20;95.00;;;;;;5009170;28;19964;-78
2022/02/21 06:47:54;;;;;;;;;;;4.20;94.80;;;;;;5015261;28;19936;-76
2022/02/21 06:50:21;;;;;;;;;;;4.30;94.70;;;;;;5012109;28;20367;-77
2022/02/21 06:52:48;;;;;;;;;;;4.30;94.50;;;;;;5012079;28;20016;-76
2022/02/21 06:55:14;;;;;;;;;;;4.80;94.90;;;;;;5014203;28;19932;-76
2022/02/21 06:57:43;;;;;;;;;;;4.30;94.50;;;;;;5012194;28;19934;-77
2022/02/21 07:00:10;;;;;;;;;;;4.30;94.30;;;;;;5013501;27;19933;-76
2022/02/21 07:02:37;;;;;;;;;;;4.30;94.10;;;;;;5011448;28;19932;-76
2022/02/21 07:05:04;;;;;;;;;;;4.40;93.80;;;;;;5017730;28;19940;-75
2022/02/21 07:07:31;;;;;;;;;;;4.50;94.00;;;;;;5024168;28;19957;-77
2022/02/21 07:09:58;;;;;;;;;;;4.40;93.80;;;;;;5028046;28;20412;-76
2022/02/21 07:12:25;;;;;;;;;;;4.40;93.50;;;;;;5025152;28;20351;-75
2022/02/21 07:14:53;;;;;;;;;;;4.50;93.50;;;;;;5027970;28;19970;-75
2022/02/21 07:17:19;;;;;;;;;;;4.60;93.00;;;;;;5029669;28;20194;-76
2022/02/21 07:19:46;;;;;;;;;;;4.70;93.00;;;;;;5013747;28;19933;-77
2022/02/21 07:22:13;;;;;;;;;;;4.80;93.10;;;;;;5016661;28;19926;-77
2022/02/21 07:24:39;;;;;;;;;;;4.80;92.80;;;;;;5019147;28;19925;-76
2022/02/21 07:27:06;;;;;;;;;;;5.00;92.80;;;;;;5016807;28;19933;-76
2022/02/21 07:29:33;;;;;;;;;;;4.90;92.90;;;;;;5015763;28;20342;-76
2022/02/21 07:32:01;;;;;;;;;;;4.80;92.70;;;;;;5018969;28;19934;-75
2022/02/21 07:34:28;;;;;;;;;;;5.00;92.30;;;;;;5021949;28;19925;-76
2022/02/21 07:36:55;;;;;;;;;;;5.00;92.00;;;;;;5022905;28;20008;-76
2022/02/21 07:39:21;;;;;;;;;;;5.00;92.20;;;;;;5025746;28;19931;-75
2022/02/21 07:41:48;;;;;;;;;;;5.00;92.50;;;;;;5013888;28;20005;-75
2022/02/21 07:44:15;;;;;;;;;;;5.00;92.30;;;;;;5016628;28;19926;-74
2022/02/21 07:46:41;;;;;;;;;;;5.10;91.90;;;;;;5013113;28;19932;-75
2022/02/21 07:49:09;;;;;;;;;;;5.10;92.00;;;;;;5015003;28;20015;-75
2022/02/21 07:51:36;;;;;;;;;;;5.10;92.20;;;;;;5022451;27;19925;-75
2022/02/21 07:54:03;;;;;;;;;;;5.20;92.10;;;;;;5020337;28;20268;-74
2022/02/21 07:56:29;;;;;;;;;;;5.20;91.80;;;;;;5017651;28;20251;-75
2022/02/21 07:58:56;;;;;;;;;;;5.30;91.90;;;;;;5026461;27;19925;-75
2022/02/21 08:01:23;;;;;;;;;;;5.40;92.20;;;;;;5005080;28;19961;-75
2022/02/21 08:03:50;;;;;;;;;;;5.40;91.90;;;;;;5017028;28;20407;-74
2022/02/21 08:06:18;;;;;;;;;;;5.60;91.60;;;;;;5014618;28;20683;-73
2022/02/21 08:08:44;;;;;;;;;;;5.60;91.60;;;;;;5020394;28;19936;-74
2022/02/21 08:11:13;;;;;;;;;;;5.60;91.60;;;;;;5012177;28;19932;-74
2022/02/21 08:13:40;;;;;;;;;;;5.60;91.40;;;;;;5021002;28;19936;-74
2022/02/21 08:16:07;;;;;;;;;;;5.70;91.40;;;;;;5016273;27;19925;-74
2022/02/21 08:18:35;;;;;;;;;;;5.70;91.70;;;;;;5021066;28;19960;-74
2022/02/21 08:21:02;;;;;;;;;;;5.80;91.80;;;;;;5016139;28;19925;-74
2022/02/21 08:23:30;;;;;;;;;;;5.80;91.70;;;;;;5015184;27;20391;-74
2022/02/21 08:25:56;;;;;;;;;;;5.80;91.50;;;;;;5017761;28;19933;-74
2022/02/21 08:28:24;;;;;;;;;;;5.90;91.40;;;;;;5018089;28;19925;-74
2022/02/21 08:30:50;;;;;;;;;;;6.00;91.60;;;;;;5020802;28;20071;-74
2022/02/21 08:33:17;;;;;;;;;;;6.00;91.50;;;;;;5014998;28;19948;-73
2022/02/21 08:35:44;;;;;;;;;;;6.10;91.50;;;;;;5016019;28;19929;-74
2022/02/21 08:38:10;;;;;;;;;;;6.10;91.50;;;;;;5016521;28;19937;-74
2022/02/21 08:40:39;;;;;;;;;;;6.10;91.30;;;;;;5015587;28;19926;-74
2022/02/21 08:43:05;;;;;;;;;;;6.00;91.50;;;;;;5015606;28;19940;-73
2022/02/21 08:45:32;;;;;;;;;;;6.00;92.00;;;;;;5016190;28;20008;-74
2022/02/21 08:47:58;;;;;;;;;;;5.90;93.50;;;;;;5016391;28;20379;-74
2022/02/21 08:50:25;;;;;;;;;;;5.80;94.30;;;;;;5013303;28;20264;-73
2022/02/21 08:52:52;;;;;;;;;;;5.80;95.10;;;;;;5013155;28;19925;-73
2022/02/21 08:55:19;;;;;;;;;;;5.70;94.90;;;;;;5011468;28;19932;-74
2022/02/21 08:57:48;;;;;;;;;;;5.80;95.00;;;;;;5011062;28;19934;-73
2022/02/21 09:00:15;;;;;;;;;;;5.80;95.60;;;;;;5015439;28;19929;-73
2022/02/21 09:02:43;;;;;;;;;;;5.80;95.50;;;;;;5016895;28;19933;-73
2022/02/21 09:05:10;;;;;;;;;;;5.80;95.80;;;;;;5012204;28;19941;-73
2022/02/21 09:07:37;;;;;;;;;;;5.90;95.10;;;;;;5013386;28;20399;-74
2022/02/21 09:10:05;;;;;;;;;;;5.80;95.70;;;;;;5016853;28;19939;-74
2022/02/21 09:12:31;;;;;;;;;;;5.90;95.90;;;;;;5014565;28;19929;-74
2022/02/21 09:15:01;;;;;;;;;;;5.90;95.90;;;;;;5015872;28;20291;-74
2022/02/21 09:17:28;;;;;;;;;;;6.00;96.00;;;;;;5013915;28;20004;-74
2022/02/21 09:19:55;;;;;;;;;;;6.00;95.60;;;;;;5014594;28;19932;-72
2022/02/21 09:22:22;;;;;;;;;;;6.10;95.80;;;;;;5018872;28;19932;-73
2022/02/21 09:24:48;;;;;;;;;;;6.20;95.30;;;;;;5014427;28;20016;-74
2022/02/21 09:27:15;;;;;;;;;;;6.20;95.50;;;;;;5019896;28;20265;-74
2022/02/21 09:29:42;;;;;;;;;;;6.40;95.20;;;;;;5012570;28;19933;-74
2022/02/21 09:32:10;;;;;;;;;;;6.40;95.10;;;;;;5014672;28;19926;-74
2022/02/21 09:34:37;;;;;;;;;;;6.50;95.10;;;;;;5014465;28;20395;-74
2022/02/21 09:37:04;;;;;;;;;;;6.60;94.90;;;;;;5010641;28;20749;-74
2022/02/21 09:39:30;;;;;;;;;;;6.60;94.80;;;;;;5016537;28;19933;-74
2022/02/21 09:41:57;;;;;;;;;;;6.70;94.50;;;;;;5016160;28;19991;-74
2022/02/21 09:44:23;;;;;;;;;;;6.80;94.40;;;;;;5011026;28;19933;-73
2022/02/21 09:46:50;;;;;;;;;;;6.90;94.00;;;;;;5010632;28;19926;-74
2022/02/21 09:49:19;;;;;;;;;;;6.80;93.60;;;;;;5015405;28;19936;-74
2022/02/21 09:51:46;;;;;;;;;;;6.90;94.10;;;;;;5018050;28;20410;-73
2022/02/21 09:54:13;;;;;;;;;;;6.90;93.60;;;;;;5016846;28;19934;-74
2022/02/21 09:56:42;;;;;;;;;;;7.00;93.40;;;;;;5010692;28;19926;-74
2022/02/21 09:59:08;;;;;;;;;;;7.00;93.80;;;;;;5015591;28;19925;-72
2022/02/21 10:01:36;;;;;;;;;;;7.00;93.60;;;;;;5014591;28;20329;-73
2022/02/21 10:04:03;;;;;;;;;;;7.00;94.10;;;;;;5017035;28;20388;-69
2022/02/21 10:06:32;;;;;;;;;;;7.10;94.00;;;;;;5013851;28;19926;-70
2022/02/21 10:09:00;;;;;;;;;;;7.00;93.90;;;;;;5011154;28;20038;-70
2022/02/21 10:11:29;;;;;;;;;;;7.20;93.70;;;;;;5010718;28;19926;-69
2022/02/21 10:13:56;;;;;;;;;;;7.30;93.30;;;;;;5015378;28;19929;-69
2022/02/21 10:16:23;;;;;;;;;;;7.50;91.70;;;;;;5009467;28;20012;-70
2022/02/21 10:18:50;;;;;;;;;;;7.60;91.50;;;;;;5012168;28;20043;-69
2022/02/21 10:21:17;;;;;;;;;;;7.80;92.20;;;;;;5008696;28;20167;-70
2022/02/21 10:23:45;;;;;;;;;;;7.70;92.30;;;;;;5011022;28;19925;-69
2022/02/21 10:26:11;;;;;;;;;;;7.90;92.10;;;;;;5022658;27;19987;-70
2022/02/21 10:28:40;;;;;;;;;;;8.20;91.90;;;;;;5050558;27;19939;-70
2022/02/21 10:31:10;;;;;;;;;;;8.40;91.60;;;;;;5010583;28;19925;-71
2022/02/21 10:33:37;;;;;;;;;;;8.10;91.80;;;;;;5015570;28;19948;-70
2022/02/21 10:36:26;;;;;;;;;;;7.90;92.10;;;;;;5015707;28;20148;-70
2022/02/21 10:38:54;;;;;;;;;;;7.80;92.60;;;;;;5016342;28;19925;-73
2022/02/21 10:41:22;;;;;;;;;;;7.50;93.50;;;;;;5015019;28;19948;-69
2022/02/21 10:43:49;;;;;;;;;;;7.40;94.40;;;;;;5020065;28;19929;-69
2022/02/21 10:46:16;;;;;;;;;;;7.40;95.20;;;;;;5013825;28;19939;-70
2022/02/21 10:48:43;;;;;;;;;;;7.20;96.20;;;;;;5016615;28;20395;-70
2022/02/21 10:51:10;;;;;;;;;;;7.10;96.50;;;;;;5011544;28;20200;-70
2022/02/21 10:53:37;;;;;;;;;;;7.10;97.00;;;;;;5010001;28;19932;-69
2022/02/21 10:56:05;;;;;;;;;;;7.00;97.60;;;;;;5015775;28;20031;-69
2022/02/21 10:58:32;;;;;;;;;;;6.90;97.90;;;;;;5011451;28;20401;-69
2022/02/21 11:01:00;;;;;;;;;;;6.80;98.70;;;;;;5011541;28;19932;-69
2022/02/21 11:03:28;;;;;;;;;;;6.70;99.90;;;;;;5015763;28;20396;-69
2022/02/21 11:05:56;;;;;;;;;;;6.60;99.90;;;;;;5012121;28;19969;-72
2022/02/21 11:08:22;;;;;;;;;;;6.50;99.90;;;;;;5015844;28;20407;-72
2022/02/21 11:10:50;;;;;;;;;;;6.40;99.90;;;;;;5015629;28;19933;-72
2022/02/21 11:13:20;;;;;;;;;;;6.40;99.90;;;;;;5017680;28;19926;-71
2022/02/21 11:15:48;;;;;;;;;;;6.40;99.90;;;;;;5012854;28;20012;-71
2022/02/21 11:18:17;;;;;;;;;;;6.30;99.90;;;;;;5011128;28;20415;-72
2022/02/21 11:20:44;;;;;;;;;;;6.30;99.90;;;;;;5015529;28;19934;-73
2022/02/21 11:23:11;;;;;;;;;;;6.30;99.90;;;;;;5015942;28;19925;-72
2022/02/21 11:25:41;;;;;;;;;;;6.40;99.90;;;;;;5014189;28;20376;-73
2022/02/21 11:28:10;;;;;;;;;;;6.40;99.90;;;;;;5010079;28;19969;-73
2022/02/21 11:30:38;;;;;;;;;;;6.40;99.90;;;;;;5014529;28;19925;-74
2022/02/21 11:33:07;;;;;;;;;;;6.50;99.90;;;;;;5012696;28;19931;-73
2022/02/21 11:35:34;;;;;;;;;;;6.60;99.90;;;;;;5010360;28;19933;-73
2022/02/21 11:38:16;;;;;;;;;;;6.70;99.90;;;;;;5012056;28;19925;-73
2022/02/21 11:41:00;;;;;;;;;;;6.80;99.90;;;;;;5015528;28;19933;-73
2022/02/21 11:43:28;;;;;;;;;;;6.90;99.90;;;;;;5011508;28;19929;-74
2022/02/21 11:45:56;;;;;;;;;;;7.00;99.90;;;;;;5014651;28;20008;-72
2022/02/21 11:48:23;;;;;;;;;;;7.10;99.90;;;;;;5011426;28;21579;-72
2022/02/21 11:50:57;;;;;;;;;;;7.10;99.90;;;;;;5011706;28;19938;-72
2022/02/21 11:53:26;;;;;;;;;;;7.20;99.90;;;;;;5018510;28;19931;-73
2022/02/21 11:55:52;;;;;;;;;;;7.20;99.90;;;;;;5015718;28;19965;-72
2022/02/21 11:58:38;;;;;;;;;;;7.20;99.90;;;;;;5012711;28;19933;-73
2022/02/21 12:01:18;;;;;;;;;;;7.30;99.90;;;;;;5010955;28;20371;-73
2022/02/21 12:03:44;;;;;;;;;;;7.10;99.90;;;;;;5022177;28;19925;-73
2022/02/21 12:06:27;;;;;;;;;;;7.20;99.90;;;;;;5013709;28;19925;-73
2022/02/21 12:08:54;;;;;;;;;;;7.30;99.90;;;;;;5011934;28;20107;-73
2022/02/21 12:11:21;;;;;;;;;;;7.20;99.90;;;;;;5014029;28;20283;-73
2022/02/21 12:14:06;;;;;;;;;;;7.00;99.90;;;;;;5011342;28;19969;-73
2022/02/21 12:16:34;;;;;;;;;;;7.10;99.90;;;;;;5014210;28;19929;-73
2022/02/21 12:19:01;;;;;;;;;;;7.20;99.90;;;;;;5016430;28;19947;-72
2022/02/21 12:21:29;;;;;;;;;;;7.20;99.90;;;;;;5016132;28;19925;-69
2022/02/21 12:24:06;;;;;;;;;;;7.20;99.90;;;;;;5022718;28;19985;-68
2022/02/21 12:26:35;;;;;;;;;;;7.20;99.90;;;;;;5016880;28;19934;-74
2022/02/21 12:29:11;;;;;;;;;;;7.20;99.90;;;;;;5018609;28;21896;-73
2022/02/21 12:31:41;;;;;;;;;;;7.10;99.90;;;;;;5015713;28;19937;-75
2022/02/21 12:34:08;;;;;;;;;;;7.10;99.90;;;;;;5020824;28;19925;-75
2022/02/21 12:36:36;;;;;;;;;;;7.20;99.90;;;;;;5021670;28;19925;-73
2022/02/21 12:39:03;;;;;;;;;;;7.40;99.90;;;;;;5024087;28;20179;-73
2022/02/21 12:41:31;;;;;;;;;;;7.50;99.90;;;;;;5019517;28;19929;-73
2022/02/21 12:43:59;;;;;;;;;;;7.60;99.90;;;;;;5011843;28;20265;-73
2022/02/21 12:46:26;;;;;;;;;;;7.50;99.90;;;;;;5015091;28;21737;-73
2022/02/21 12:48:55;;;;;;;;;;;7.50;99.90;;;;;;5023666;28;20196;-73
2022/02/21 12:51:23;;;;;;;;;;;7.50;99.90;;;;;;5019090;28;19932;-73
2022/02/21 12:53:51;;;;;;;;;;;7.50;99.90;;;;;;5016067;28;20031;-73
2022/02/21 12:56:18;;;;;;;;;;;7.70;99.90;;;;;;5016392;28;20373;-73
2022/02/21 12:58:44;;;;;;;;;;;7.80;99.90;;;;;;5019568;28;20538;-73
2022/02/21 13:01:14;;;;;;;;;;;8.00;99.90;;;;;;5014561;28;19925;-73
2022/02/21 13:03:41;;;;;;;;;;;8.10;99.90;;;;;;5010946;28;19926;-73
2022/02/21 13:06:13;;;;;;;;;;;8.40;99.90;;;;;;5011886;28;19932;-73
2022/02/21 13:08:40;;;;;;;;;;;8.50;99.90;;;;;;5015831;28;20036;-73
2022/02/21 13:11:06;;;;;;;;;;;8.70;99.90;;;;;;5013369;28;19940;-74
2022/02/21 13:13:42;;;;;;;;;;;8.80;99.90;;;;;;5016421;28;20319;-74
2022/02/21 13:16:08;;;;;;;;;;;9.00;99.90;;;;;;5017488;28;20008;-74
2022/02/21 13:18:52;;;;;;;;;;;9.10;99.90;;;;;;5020053;28;20292;-73
2022/02/21 13:21:36;;;;;;;;;;;9.20;99.90;;;;;;5016100;28;19969;-73
2022/02/21 13:24:05;;;;;;;;;;;9.30;99.90;;;;;;5013322;28;19936;-73
2022/02/21 13:26:45;;;;;;;;;;;9.20;99.90;;;;;;5013915;28;20421;-73
2022/02/21 13:29:25;;;;;;;;;;;9.10;99.90;;;;;;5012028;28;19926;-73
2022/02/21 13:31:52;;;;;;;;;;;8.90;99.90;;;;;;5010485;28;19933;-75
2022/02/21 13:34:19;;;;;;;;;;;8.60;99.90;;;;;;5017423;27;19931;-73
2022/02/21 13:36:47;;;;;;;;;;;8.60;99.90;;;;;;5015419;28;19930;-74
2022/02/21 13:39:22;;;;;;;;;;;8.50;99.90;;;;;;5010266;28;20392;-73
2022/02/21 13:41:49;;;;;;;;;;;8.30;99.90;;;;;;5010312;28;20287;-74
2022/02/21 13:44:20;;;;;;;;;;;8.20;99.90;;;;;;5014811;28;20024;-73
2022/02/21 13:46:46;;;;;;;;;;;8.10;99.90;;;;;;5015100;28;19925;-74
2022/02/21 13:49:13;;;;;;;;;;;8.10;99.90;;;;;;5009716;28;19925;-74
2022/02/21 13:51:40;;;;;;;;;;;8.20;99.90;;;;;;5014415;28;20291;-74
2022/02/21 13:54:21;;;;;;;;;;;8.20;99.90;;;;;;5010671;28;20392;-74
2022/02/21 13:57:02;;;;;;;;;;;8.20;99.90;;;;;;5008421;28;20376;-74
2022/02/21 13:59:40;;;;;;;;;;;8.20;99.90;;;;;;5011415;27;19926;-74
2022/02/21 14:02:06;;;;;;;;;;;8.40;99.90;;;;;;5011966;28;19947;-76
2022/02/21 14:04:33;;;;;;;;;;;8.70;99.90;;;;;;5020691;28;20440;-79
2022/02/21 14:07:06;;;;;;;;;;;8.70;99.90;;;;;;5016539;28;20008;-79
2022/02/21 14:09:34;;;;;;;;;;;8.80;99.90;;;;;;5017782;28;19936;-79
2022/02/21 14:12:09;;;;;;;;;;;8.90;99.90;;;;;;5018830;28;19926;-79
2022/02/21 14:14:37;;;;;;;;;;;8.90;99.90;;;;;;5018466;28;19931;-80
2022/02/21 14:17:04;;;;;;;;;;;8.90;99.90;;;;;;5045160;28;19955;-72
2022/02/21 14:19:30;;;;;;;;;;;9.00;99.90;;;;;;5047225;28;19925;-78
2022/02/21 14:21:59;;;;;;;;;;;9.00;99.90;;;;;;5044982;28;19921;-80
2022/02/21 14:24:26;;;;;;;;;;;9.00;99.90;;;;;;5044888;28;19925;-79
2022/02/21 14:26:53;;;;;;;;;;;9.00;99.90;;;;;;5017510;28;19925;-75
2022/02/21 14:29:20;;;;;;;;;;;9.10;99.90;;;;;;5013592;28;19945;-74
2022/02/21 14:31:47;;;;;;;;;;;9.20;99.90;;;;;;5016213;28;19976;-74
2022/02/21 14:34:14;;;;;;;;;;;9.10;99.90;;;;;;5013025;28;20038;-73